Time;durP1;ratioP1;P1;durP2;ratioP2;P2;SDS_P1;SDS_P2;PMS_P1;PMS_P2;Temp;Humidity;BMP_temperature;BMP_pressure;BME280_temperature;BME280_humidity;BME280_pressure;Samples;Min_cycle;Max_cycle;Signal;HPM_P1;HPM_P2
2021/09/03 00:01:41;;;;;;;8.70;3.60;;;;;;;20.78;41.81;100383.34;5123742;27;20095;-68
2021/09/03 00:04:07;;;;;;;6.32;4.20;;;;;;;20.70;42.00;100382.56;5120352;28;20031;-68
2021/09/03 00:06:32;;;;;;;6.05;3.50;;;;;;;20.76;41.79;100388.94;5132088;27;20023;-68
2021/09/03 00:08:58;;;;;;;5.50;3.35;;;;;;;20.82;41.58;100380.06;5123999;28;20042;-68
2021/09/03 00:11:23;;;;;;;6.18;3.70;;;;;;;20.84;41.70;100380.66;5125867;27;20027;-68
2021/09/03 00:13:49;;;;;;;6.15;3.97;;;;;;;20.92;41.43;100377.72;5126482;27;20260;-68
2021/09/03 00:16:18;;;;;;;5.05;3.33;;;;;;;20.84;41.66;100387.91;5131752;27;20046;-68
2021/09/03 00:18:46;;;;;;;6.60;3.85;;;;;;;20.75;41.80;100381.09;5128505;27;20098;-68
2021/09/03 00:21:11;;;;;;;8.23;3.70;;;;;;;20.71;41.92;100384.22;5128387;27;20031;-68
2021/09/03 00:23:37;;;;;;;5.97;3.60;;;;;;;20.57;42.18;100384.47;5128352;27;20035;-68
2021/09/03 00:26:02;;;;;;;6.50;3.95;;;;;;;20.63;42.19;100380.94;5126343;27;20039;-68
2021/09/03 00:28:28;;;;;;;4.80;3.45;;;;;;;20.68;42.35;100387.31;5128608;27;20312;-68
2021/09/03 00:30:53;;;;;;;8.75;4.05;;;;;;;20.70;41.89;100385.25;5128290;27;20027;-68
2021/09/03 00:33:18;;;;;;;6.50;3.85;;;;;;;20.85;41.80;100385.00;5125131;27;20044;-68
2021/09/03 00:35:44;;;;;;;12.60;4.15;;;;;;;20.61;42.13;100374.94;5128480;27;20035;-68
2021/09/03 00:38:10;;;;;;;5.38;3.75;;;;;;;20.57;42.26;100387.97;5128475;27;20317;-68
2021/09/03 00:40:35;;;;;;;8.48;3.83;;;;;;;20.54;42.09;100382.19;5119397;27;20030;-68
2021/09/03 00:43:01;;;;;;;8.18;4.10;;;;;;;20.46;42.17;100382.44;5127585;27;20344;-68
2021/09/03 00:45:26;;;;;;;9.80;4.13;;;;;;;20.53;42.21;100380.53;5128523;27;20031;-68
2021/09/03 00:47:51;;;;;;;5.97;3.90;;;;;;;20.72;41.84;100385.03;5126102;27;20316;-68
2021/09/03 00:50:17;;;;;;;7.28;4.00;;;;;;;20.67;41.87;100377.59;5128872;27;20325;-68
2021/09/03 00:52:43;;;;;;;9.00;4.32;;;;;;;20.46;42.33;100380.56;5126194;27;20128;-68
2021/09/03 00:55:09;;;;;;;5.90;3.67;;;;;;;20.58;42.06;100381.56;5126547;27;20221;-68
2021/09/03 00:57:34;;;;;;;6.95;4.10;;;;;;;20.68;41.61;100383.81;5125357;27;20019;-68
2021/09/03 01:00:00;;;;;;;7.78;3.60;;;;;;;20.74;41.72;100382.97;5129246;27;20202;-68
2021/09/03 01:02:25;;;;;;;7.43;3.78;;;;;;;20.59;42.12;100377.84;5126430;27;20034;-68
2021/09/03 01:04:51;;;;;;;5.78;3.88;;;;;;;20.68;41.86;100370.34;5128803;27;20291;-68
2021/09/03 01:07:17;;;;;;;8.45;3.80;;;;;;;20.56;41.94;100377.44;5143801;27;20023;-68
2021/09/03 01:09:42;;;;;;;6.35;3.83;;;;;;;20.60;41.97;100373.28;5124745;27;20051;-68
2021/09/03 01:12:08;;;;;;;5.57;3.80;;;;;;;20.60;41.93;100376.78;5128181;27;20020;-68
2021/09/03 01:14:33;;;;;;;6.88;3.53;;;;;;;20.31;42.66;100375.41;5125284;27;20046;-68
2021/09/03 01:16:59;;;;;;;5.88;3.75;;;;;;;20.37;42.95;100368.34;5130298;27;20101;-68
2021/09/03 01:19:24;;;;;;;6.00;3.67;;;;;;;20.38;42.68;100378.06;5125606;27;20316;-68
2021/09/03 01:21:52;;;;;;;8.20;3.58;;;;;;;20.45;42.58;100362.78;5122181;27;20098;-68
2021/09/03 01:24:18;;;;;;;5.88;3.55;;;;;;;20.34;42.66;100361.53;5127050;27;20062;-68
2021/09/03 01:26:44;;;;;;;4.82;3.40;;;;;;;20.35;42.67;100368.56;5127467;27;20347;-68
2021/09/03 01:29:12;;;;;;;6.45;3.70;;;;;;;20.37;42.76;100357.59;5126163;27;20051;-68
2021/09/03 01:31:37;;;;;;;5.43;3.88;;;;;;;20.21;43.24;100366.09;5124259;27;20059;-68
2021/09/03 01:34:03;;;;;;;7.15;4.05;;;;;;;20.40;42.78;100365.25;5123877;27;20054;-68
2021/09/03 01:36:29;;;;;;;7.13;4.20;;;;;;;20.55;42.79;100373.91;5129171;27;20053;-68
2021/09/03 01:38:55;;;;;;;6.15;4.10;;;;;;;20.40;42.96;100360.72;5127172;27;20035;-68
2021/09/03 01:41:21;;;;;;;8.55;4.20;;;;;;;20.50;43.17;100357.56;5124411;27;20050;-68
2021/09/03 01:43:47;;;;;;;7.82;3.78;;;;;;;20.53;43.08;100364.41;5131734;27;20035;-68
2021/09/03 01:46:13;;;;;;;12.55;3.92;;;;;;;20.61;42.58;100366.84;5134064;27;20042;-68
2021/09/03 01:48:38;;;;;;;9.57;4.00;;;;;;;20.45;42.95;100359.25;5126540;27;20043;-68
2021/09/03 01:51:04;;;;;;;6.72;3.95;;;;;;;20.55;42.78;100363.16;5127482;27;20038;-68
2021/09/03 01:53:29;;;;;;;5.95;3.80;;;;;;;20.55;42.81;100362.31;5105775;27;20020;-68
2021/09/03 01:55:55;;;;;;;9.85;4.22;;;;;;;20.31;43.38;100364.63;5127065;27;20259;-67
2021/09/03 01:58:20;;;;;;;7.20;3.60;;;;;;;20.48;42.75;100362.34;5129061;27;20204;-68
2021/09/03 02:00:46;;;;;;;5.15;3.67;;;;;;;20.59;42.73;100361.69;5126388;27;20244;-68
2021/09/03 02:03:14;;;;;;;5.38;4.18;;;;;;;20.37;43.35;100349.53;5123429;27;20032;-68
2021/09/03 02:05:40;;;;;;;9.30;4.18;;;;;;;20.38;43.43;100356.56;5128597;27;20610;-68
2021/09/03 02:08:10;;;;;;;7.75;4.03;;;;;;;20.39;43.34;100351.00;5125270;27;20054;-68
2021/09/03 02:10:36;;;;;;;6.85;3.65;;;;;;;20.47;42.90;100347.25;5124497;27;20031;-68
2021/09/03 02:13:04;;;;;;;6.13;3.78;;;;;;;20.33;43.50;100348.28;5125068;27;20027;-68
2021/09/03 02:15:30;;;;;;;6.05;3.63;;;;;;;20.28;43.75;100351.59;5122359;27;20045;-68
2021/09/03 02:17:56;;;;;;;8.95;4.68;;;;;;;20.17;44.32;100348.75;5126287;27;20031;-68
2021/09/03 02:20:21;;;;;;;6.47;4.22;;;;;;;20.03;44.81;100353.31;5124125;27;20038;-68
2021/09/03 02:22:46;;;;;;;8.05;4.18;;;;;;;19.91;45.18;100357.66;5125847;27;20280;-68
2021/09/03 02:25:12;;;;;;;9.68;4.13;;;;;;;19.97;45.11;100352.28;5121885;27;20325;-68
2021/09/03 02:27:38;;;;;;;6.43;3.97;;;;;;;20.00;45.18;100359.94;5126794;27;20325;-68
2021/09/03 02:30:06;;;;;;;7.25;4.22;;;;;;;19.96;45.15;100358.69;5124915;27;20229;-68
2021/09/03 02:32:31;;;;;;;9.35;3.90;;;;;;;19.83;45.55;100360.56;5121873;27;20068;-68
2021/09/03 02:34:56;;;;;;;6.07;4.20;;;;;;;19.66;46.37;100362.81;5125971;27;20039;-68
2021/09/03 02:37:22;;;;;;;8.82;5.05;;;;;;;19.58;46.27;100357.63;5125374;27;20034;-68
2021/09/03 02:39:47;;;;;;;9.00;4.18;;;;;;;19.73;46.21;100363.63;5106499;28;20080;-68
2021/09/03 02:42:13;;;;;;;7.80;4.28;;;;;;;19.80;46.10;100369.03;5124372;27;20045;-68
2021/09/03 02:44:38;;;;;;;8.50;4.72;;;;;;;19.79;46.09;100356.63;5128159;27;20032;-68
2021/09/03 02:47:04;;;;;;;9.63;4.60;;;;;;;19.84;46.01;100367.59;5123519;27;20042;-68
2021/09/03 02:49:29;;;;;;;10.57;4.07;;;;;;;19.85;45.84;100362.00;5123159;27;20077;-67
2021/09/03 02:51:55;;;;;;;9.43;5.00;;;;;;;19.70;46.20;100372.09;5125897;27;20031;-68
2021/09/03 02:54:21;;;;;;;10.95;4.78;;;;;;;19.77;45.82;100378.34;5122383;27;20031;-68
2021/09/03 02:56:46;;;;;;;11.65;4.90;;;;;;;19.74;45.63;100371.50;5133788;27;20070;-68
2021/09/03 02:59:12;;;;;;;14.75;4.97;;;;;;;19.49;46.42;100366.88;5127081;27;20126;-68
2021/09/03 03:01:37;;;;;;;7.13;4.68;;;;;;;19.34;46.76;100372.44;5121055;27;20043;-68
2021/09/03 03:04:03;;;;;;;10.35;5.28;;;;;;;19.17;47.22;100374.69;5126054;27;20191;-68
2021/09/03 03:06:28;;;;;;;10.60;4.75;;;;;;;19.13;47.30;100360.00;5122570;27;20400;-69
2021/09/03 03:08:53;;;;;;;13.27;5.40;;;;;;;19.30;47.19;100366.66;5127496;27;20039;-69
2021/09/03 03:11:19;;;;;;;11.40;5.07;;;;;;;19.41;46.96;100375.97;5125612;27;20023;-69
2021/09/03 03:13:48;;;;;;;8.85;4.40;;;;;;;19.41;46.72;100365.22;5104888;28;20024;-69
2021/09/03 03:16:17;;;;;;;8.10;5.00;;;;;;;19.40;46.75;100368.94;5125217;27;20097;-69
2021/09/03 03:18:42;;;;;;;7.32;4.45;;;;;;;19.54;46.72;100369.81;5119552;27;20084;-69
2021/09/03 03:21:08;;;;;;;10.50;4.97;;;;;;;19.65;46.20;100370.03;5143553;27;20263;-69
2021/09/03 03:23:34;;;;;;;10.70;4.72;;;;;;;19.74;46.11;100367.97;5127132;27;20042;-68
2021/09/03 03:25:59;;;;;;;13.15;5.35;;;;;;;19.76;45.72;100358.66;5121978;27;20016;-69
2021/09/03 03:28:25;;;;;;;11.50;4.65;;;;;;;19.82;45.87;100361.59;5123587;27;20032;-69
2021/09/03 03:30:50;;;;;;;9.63;4.82;;;;;;;19.69;46.20;100365.06;5123938;27;20023;-69
2021/09/03 03:33:16;;;;;;;10.52;5.45;;;;;;;19.61;46.23;100355.38;5122001;27;20305;-69
2021/09/03 03:35:41;;;;;;;9.57;5.38;;;;;;;19.26;47.29;100357.34;5123470;27;20049;-69
2021/09/03 03:38:07;;;;;;;13.35;5.43;;;;;;;19.07;48.36;100358.97;5124758;27;20205;-69
2021/09/03 03:40:32;;;;;;;9.93;5.10;;;;;;;19.09;48.47;100362.28;5123356;27;20343;-69
2021/09/03 03:42:58;;;;;;;10.23;6.07;;;;;;;19.01;48.36;100361.63;5125328;27;20032;-69
2021/09/03 03:45:24;;;;;;;11.35;5.85;;;;;;;19.25;47.87;100362.94;5139210;27;20106;-69
2021/09/03 03:47:50;;;;;;;14.48;5.63;;;;;;;19.37;47.30;100361.28;5126644;27;20099;-69
2021/09/03 03:50:15;;;;;;;16.20;6.32;;;;;;;19.24;48.06;100367.47;5122783;28;20062;-69
2021/09/03 03:52:40;;;;;;;17.08;6.35;;;;;;;19.18;48.74;100365.59;5123222;27;20019;-69
2021/09/03 03:55:06;;;;;;;14.75;6.05;;;;;;;19.23;48.56;100370.34;5123418;28;20418;-69
2021/09/03 03:57:32;;;;;;;15.80;7.13;;;;;;;18.84;49.01;100368.38;5122381;28;20034;-69
2021/09/03 03:59:57;;;;;;;15.48;6.82;;;;;;;18.98;48.68;100365.53;5139218;27;20027;-69
2021/09/03 04:02:23;;;;;;;17.00;6.60;;;;;;;19.09;48.42;100364.13;5124036;28;20054;-69
2021/09/03 04:08:10;;;;;;;15.63;7.18;;;;;;;19.36;48.78;100373.06;5127124;28;20236;-69
2021/09/03 04:10:35;;;;;;;14.43;6.38;;;;;;;19.27;49.45;100380.50;5123810;28;20028;-68
2021/09/03 04:13:01;;;;;;;13.00;6.07;;;;;;;19.12;49.83;100379.84;5125175;28;20217;-69
2021/09/03 04:15:26;;;;;;;10.60;5.90;;;;;;;18.92;51.42;100395.03;5121002;27;20300;-69
2021/09/03 04:17:52;;;;;;;9.30;5.90;;;;;;;18.52;52.68;100392.94;5122592;28;20375;-69
2021/09/03 04:20:18;;;;;;;9.10;5.60;;;;;;;18.22;53.18;100401.41;5120858;28;20315;-69
2021/09/03 04:22:43;;;;;;;11.95;5.90;;;;;;;18.10;53.72;100406.47;5123268;28;20266;-69
2021/09/03 04:25:09;;;;;;;12.02;5.43;;;;;;;18.05;53.63;100401.69;5124264;28;20098;-69
2021/09/03 04:27:36;;;;;;;11.05;5.38;;;;;;;17.86;54.03;100373.72;5122951;28;20329;-69
2021/09/03 04:30:04;;;;;;;13.23;7.15;;;;;;;18.11;53.96;100400.09;5130719;27;20042;-69
2021/09/03 04:32:29;;;;;;;12.13;5.75;;;;;;;18.38;54.10;100406.47;5120578;28;20068;-69
2021/09/03 04:34:55;;;;;;;15.63;5.78;;;;;;;18.29;54.32;100413.00;5123229;28;20775;-69
2021/09/03 04:37:20;;;;;;;17.23;6.15;;;;;;;18.40;53.68;100415.97;5125443;28;20034;-69
2021/09/03 04:39:45;;;;;;;14.45;6.10;;;;;;;18.60;53.07;100412.56;5121731;28;20042;-69
2021/09/03 04:42:11;;;;;;;16.70;6.07;;;;;;;18.81;51.62;100413.38;5130746;27;20039;-69
2021/09/03 04:44:36;;;;;;;16.65;6.78;;;;;;;19.05;50.54;100416.56;5123938;28;20426;-69
2021/09/03 04:47:02;;;;;;;23.55;7.13;;;;;;;19.16;50.22;100413.28;5124961;27;20035;-69
2021/09/03 04:49:28;;;;;;;21.77;6.72;;;;;;;19.30;49.49;100416.84;5128261;28;20045;-69
2021/09/03 04:51:53;;;;;;;26.02;7.30;;;;;;;19.54;48.45;100427.06;5126832;28;20066;-69
2021/09/03 04:54:19;;;;;;;32.72;7.03;;;;;;;19.70;47.99;100429.34;5120289;28;20347;-69
2021/09/03 04:56:44;;;;;;;29.30;6.63;;;;;;;19.91;47.45;100432.91;5128576;27;20522;-69
2021/09/03 04:59:10;;;;;;;29.45;6.55;;;;;;;20.04;46.70;100428.38;5123850;27;20381;-69
2021/09/03 05:01:35;;;;;;;13.55;6.30;;;;;;;20.18;49.40;100441.81;5129777;27;20371;-69
2021/09/03 05:04:01;;;;;;;23.15;6.82;;;;;;;20.22;49.41;100449.25;5130685;27;20064;-69
2021/09/03 05:06:26;;;;;;;21.65;6.53;;;;;;;20.20;49.86;100450.50;5136198;27;20322;-69
2021/09/03 05:08:52;;;;;;;18.90;6.05;;;;;;;20.15;50.56;100451.13;5131193;27;20054;-69
2021/09/03 05:11:17;;;;;;;24.17;6.55;;;;;;;20.34;48.70;100444.91;5117181;27;20034;-69
2021/09/03 05:13:43;;;;;;;15.93;6.50;;;;;;;20.57;49.24;100443.66;5134977;27;20026;-69
2021/09/03 05:16:08;;;;;;;17.13;6.45;;;;;;;20.57;48.08;100443.66;5134090;27;20035;-69
2021/09/03 05:18:34;;;;;;;14.10;6.43;;;;;;;20.56;48.46;100442.00;5134253;27;20031;-69
2021/09/03 05:20:59;;;;;;;19.05;7.13;;;;;;;20.32;49.85;100444.28;5118462;27;20019;-71
2021/09/03 05:23:25;;;;;;;19.58;6.63;;;;;;;20.26;49.76;100450.50;5132956;27;20024;-69
2021/09/03 05:25:50;;;;;;;20.48;6.93;;;;;;;20.12;49.87;100456.91;5133873;27;20047;-69
2021/09/03 05:28:16;;;;;;;10.43;6.28;;;;;;;20.09;50.42;100443.88;5143186;27;20043;-69
2021/09/03 05:30:41;;;;;;;15.13;6.97;;;;;;;19.99;50.10;100457.72;5143756;27;20019;-69
2021/09/03 05:33:07;;;;;;;27.13;8.52;;;;;;;20.19;51.14;100463.13;5142151;27;20039;-69
2021/09/03 05:35:32;;;;;;;34.10;8.93;;;;;;;19.79;51.43;100458.75;5143739;27;20027;-69
2021/09/03 05:38:04;;;;;;;20.55;7.40;;;;;;;19.56;52.96;100456.41;5143511;27;20038;-69
2021/09/03 05:40:29;;;;;;;17.60;7.20;;;;;;;19.58;53.36;100462.41;5142838;27;20050;-68
2021/09/03 05:42:55;;;;;;;20.63;7.70;;;;;;;19.87;52.59;100459.38;5143506;27;20043;-69
2021/09/03 05:45:20;;;;;;;12.43;6.72;;;;;;;19.84;51.84;100461.66;5143058;27;20031;-69
2021/09/03 05:47:46;;;;;;;14.98;6.30;;;;;;;20.29;50.94;100465.38;5142833;27;20031;-69
2021/09/03 05:50:14;;;;;;;11.77;6.13;;;;;;;20.68;49.28;100451.91;5142854;27;20312;-69
2021/09/03 05:52:39;;;;;;;14.85;6.28;;;;;;;20.96;46.61;100451.66;5143329;27;20213;-69
2021/09/03 05:55:05;;;;;;;15.18;6.60;;;;;;;21.50;45.00;100447.69;5142399;27;20114;-69
2021/09/03 05:57:31;;;;;;;15.20;6.15;;;;;;;21.65;44.83;100456.31;5124609;27;20019;-69
2021/09/03 05:59:56;;;;;;;15.23;6.60;;;;;;;21.75;43.27;100457.69;5142854;27;20299;-69
2021/09/03 06:02:22;;;;;;;11.98;6.50;;;;;;;22.19;42.09;100449.53;5142735;27;20026;-69
2021/09/03 06:04:47;;;;;;;12.38;5.50;;;;;;;22.38;40.63;100457.66;5142871;27;20056;-69
2021/09/03 06:07:12;;;;;;;14.23;5.82;;;;;;;22.85;39.41;100445.38;5141598;27;20355;-69
2021/09/03 06:09:38;;;;;;;13.48;5.93;;;;;;;23.45;38.27;100454.41;5142709;27;20042;-69
2021/09/03 06:12:04;;;;;;;12.10;5.35;;;;;;;24.18;36.53;100453.34;5142841;27;20027;-69
2021/09/03 06:14:30;;;;;;;17.10;5.72;;;;;;;24.63;35.17;100461.72;5142860;27;20031;-69
2021/09/03 06:16:55;;;;;;;11.20;5.45;;;;;;;24.87;35.06;100453.56;5142553;27;20030;-69
2021/09/03 06:19:21;;;;;;;12.23;5.07;;;;;;;25.02;34.73;100473.75;5142505;27;20042;-69
2021/09/03 06:21:47;;;;;;;15.50;5.50;;;;;;;24.74;36.06;100479.84;5141252;27;20035;-69
2021/09/03 06:24:31;;;;;;;11.40;5.55;;;;;;;24.47;36.79;100468.69;5142553;27;20053;-69
2021/09/03 06:27:03;;;;;;;8.85;5.30;;;;;;;24.13;37.46;100477.56;5142549;27;20047;-69
2021/09/03 06:29:41;;;;;;;12.70;5.50;;;;;;;23.80;38.50;100476.19;5142228;27;20259;-69
2021/09/03 06:32:14;;;;;;;11.65;5.30;;;;;;;23.16;39.09;100480.34;5142394;27;20031;-69
2021/09/03 06:34:44;;;;;;;8.75;5.20;;;;;;;23.22;38.98;100475.91;5142996;27;20043;-69
2021/09/03 06:37:10;;;;;;;13.45;5.38;;;;;;;23.89;38.12;100472.09;5142913;27;20032;-69
2021/09/03 06:39:36;;;;;;;7.60;5.03;;;;;;;23.91;37.17;100482.66;5142691;27;20229;-69
2021/09/03 06:42:03;;;;;;;11.20;5.07;;;;;;;24.33;36.54;100486.22;5142615;27;20207;-69
2021/09/03 06:44:29;;;;;;;12.38;4.82;;;;;;;24.36;36.27;100477.63;5142566;27;20031;-69
2021/09/03 06:46:54;;;;;;;8.98;4.72;;;;;;;23.81;38.27;100483.25;5142463;27;20022;-68
2021/09/03 06:49:20;;;;;;;9.98;4.78;;;;;;;24.24;37.95;100478.66;5142687;27;20040;-68
2021/09/03 06:51:45;;;;;;;14.80;5.35;;;;;;;24.33;35.92;100469.97;5142417;27;20047;-68
2021/09/03 06:54:11;;;;;;;11.32;5.35;;;;;;;24.63;35.57;100483.41;5142757;27;20038;-68
2021/09/03 06:56:36;;;;;;;14.57;5.25;;;;;;;24.57;35.59;100483.50;5142783;27;20091;-68
2021/09/03 06:59:02;;;;;;;10.02;4.65;;;;;;;24.68;35.88;100477.25;5142737;27;20035;-68
2021/09/03 07:01:28;;;;;;;10.82;4.65;;;;;;;24.84;36.33;100476.53;5142569;27;20031;-68
2021/09/03 07:03:54;;;;;;;9.07;5.00;;;;;;;24.65;35.68;100477.75;5141724;27;20023;-68
2021/09/03 07:06:19;;;;;;;9.98;4.85;;;;;;;25.22;33.41;100475.22;5142687;27;20317;-68
2021/09/03 07:08:45;;;;;;;11.25;4.97;;;;;;;25.12;33.69;100471.25;5141913;27;20039;-68
2021/09/03 07:11:10;;;;;;;12.73;4.78;;;;;;;26.00;33.25;100474.53;5142307;27;20035;-68
2021/09/03 07:13:36;;;;;;;9.07;4.28;;;;;;;25.58;32.82;100477.56;5142377;27;20210;-68
2021/09/03 07:16:02;;;;;;;10.48;4.78;;;;;;;25.82;32.18;100463.91;5142327;27;20249;-68
2021/09/03 07:18:27;;;;;;;8.50;4.53;;;;;;;25.70;33.29;100472.94;5142009;27;20047;-68
2021/09/03 07:20:53;;;;;;;8.85;4.05;;;;;;;26.37;32.77;100474.91;5156605;27;20225;-68
2021/09/03 07:23:18;;;;;;;8.57;5.03;;;;;;;25.89;33.88;100476.25;5142582;27;20334;-68
2021/09/03 07:25:44;;;;;;;14.57;5.05;;;;;;;24.72;37.09;100473.84;5142281;27;20370;-69
2021/09/03 07:28:09;;;;;;;9.65;4.80;;;;;;;24.98;36.87;100478.00;5142108;27;20058;-70
2021/09/03 07:30:35;;;;;;;9.43;4.45;;;;;;;25.13;37.27;100477.50;5142045;27;20023;-68
2021/09/03 07:33:00;;;;;;;10.80;5.03;;;;;;;24.59;37.65;100474.09;5141954;27;20050;-68
2021/09/03 07:35:26;;;;;;;9.52;4.50;;;;;;;24.40;39.60;100478.81;5140572;27;20035;-68
2021/09/03 07:37:51;;;;;;;9.85;5.10;;;;;;;24.58;38.01;100485.16;5141831;27;20031;-68
2021/09/03 07:40:17;;;;;;;13.32;4.85;;;;;;;24.06;38.37;100472.25;5141652;27;20019;-70
2021/09/03 07:42:43;;;;;;;7.32;4.20;;;;;;;24.24;37.54;100484.06;5142015;27;20027;-70
2021/09/03 07:45:09;;;;;;;9.02;4.93;;;;;;;24.38;37.77;100480.91;5141449;27;20039;-70
2021/09/03 07:47:35;;;;;;;10.00;4.65;;;;;;;24.56;36.69;100487.28;5141605;27;20091;-71
2021/09/03 07:50:00;;;;;;;9.23;4.60;;;;;;;24.91;35.20;100479.13;5140078;27;20035;-71
2021/09/03 07:52:25;;;;;;;11.25;4.50;;;;;;;25.58;34.14;100482.16;5142152;27;20027;-68
2021/09/03 07:54:51;;;;;;;7.35;4.70;;;;;;;25.43;34.50;100486.22;5123080;27;20055;-68
2021/09/03 07:57:16;;;;;;;9.40;4.78;;;;;;;25.33;35.07;100485.19;5142338;27;20038;-68
2021/09/03 07:59:42;;;;;;;9.07;4.45;;;;;;;25.51;33.73;100481.47;5140646;27;20045;-68
2021/09/03 08:02:07;;;;;;;7.55;4.43;;;;;;;25.84;33.64;100483.47;5138958;27;20027;-68
2021/09/03 08:04:33;;;;;;;6.68;4.10;;;;;;;25.48;33.98;100480.06;5141867;27;20072;-68
2021/09/03 08:06:59;;;;;;;9.88;4.70;;;;;;;25.72;33.13;100478.13;5141683;27;20075;-70
2021/09/03 08:09:25;;;;;;;10.40;5.45;;;;;;;26.11;32.98;100480.97;5141399;27;20046;-68
2021/09/03 08:11:51;;;;;;;8.68;4.68;;;;;;;25.24;34.62;100482.03;5142317;27;20027;-70
2021/09/03 08:14:17;;;;;;;9.85;4.30;;;;;;;25.27;34.36;100476.16;5140199;27;20102;-70
2021/09/03 08:16:42;;;;;;;9.75;4.22;;;;;;;25.45;33.86;100469.72;5141122;27;20325;-68
2021/09/03 08:19:08;;;;;;;10.77;4.60;;;;;;;25.34;34.67;100479.53;5141861;27;20049;-70
2021/09/03 08:21:34;;;;;;;10.23;4.25;;;;;;;25.43;34.69;100469.13;5141696;27;20038;-70
2021/09/03 08:24:00;;;;;;;9.50;4.05;;;;;;;25.34;34.88;100468.69;5140070;27;20300;-67
2021/09/03 08:26:25;;;;;;;8.13;4.50;;;;;;;25.31;33.42;100457.50;5141608;27;20023;-70
2021/09/03 08:28:51;;;;;;;9.95;4.45;;;;;;;25.68;32.23;100444.41;5140612;27;20076;-69
2021/09/03 08:31:16;;;;;;;6.68;3.63;;;;;;;25.78;32.70;100439.97;5142503;27;20039;-70
2021/09/03 08:33:41;;;;;;;6.75;4.18;;;;;;;25.59;32.76;100443.94;5145428;27;20080;-72
2021/09/03 08:36:07;;;;;;;9.32;3.97;;;;;;;25.93;31.62;100441.31;5145049;27;20031;-70
2021/09/03 08:38:32;;;;;;;5.53;3.90;;;;;;;26.08;32.04;100436.16;5145292;27;20038;-67
2021/09/03 08:40:58;;;;;;;5.43;3.97;;;;;;;25.51;33.19;100435.38;5145349;27;20124;-67
2021/09/03 08:43:25;;;;;;;4.88;3.75;;;;;;;25.57;33.75;100432.53;5143376;27;20035;-69
2021/09/03 08:45:51;;;;;;;5.38;3.70;;;;;;;25.65;32.29;100431.31;5141602;27;20025;-69
2021/09/03 08:48:19;;;;;;;9.10;3.92;;;;;;;25.47;32.69;100426.91;5145078;27;20058;-69
2021/09/03 08:50:45;;;;;;;5.10;3.50;;;;;;;25.05;33.52;100424.50;5145298;27;20078;-72
2021/09/03 08:53:15;;;;;;;7.50;3.72;;;;;;;24.93;33.43;100422.81;5144877;27;20297;-71
2021/09/03 08:55:43;;;;;;;9.77;4.03;;;;;;;24.81;33.13;100426.38;5145308;27;20098;-72
2021/09/03 08:58:09;;;;;;;5.03;3.63;;;;;;;25.05;34.52;100420.97;5143764;27;20023;-72
2021/09/03 09:00:35;;;;;;;6.28;4.00;;;;;;;25.12;32.29;100405.38;5144604;27;20374;-72
2021/09/03 09:03:13;;;;;;;6.53;3.67;;;;;;;25.10;31.79;100410.22;5144716;27;20358;-72
2021/09/03 09:05:59;;;;;;;10.10;3.67;;;;;;;25.55;30.82;100398.56;5144745;27;20102;-70
2021/09/03 09:08:27;;;;;;;9.73;3.00;;;;;;;25.48;33.04;100397.91;5143254;27;20075;-71
2021/09/03 09:10:58;;;;;;;5.90;3.60;;;;;;;25.36;31.69;100397.97;5126202;27;20019;-70
2021/09/03 09:13:27;;;;;;;5.03;3.15;;;;;;;25.23;33.46;100396.38;5142182;27;20070;-72
2021/09/03 09:16:07;;;;;;;6.05;3.30;;;;;;;25.52;32.93;100393.66;5144166;27;20039;-70
2021/09/03 09:18:37;;;;;;;8.57;3.17;;;;;;;26.04;32.67;100386.16;5140796;27;20047;-70
2021/09/03 09:21:32;;;;;;;7.78;3.75;;;;;;;26.45;32.41;100386.78;5139230;27;20063;-70
2021/09/03 09:24:02;;;;;;;;;;;;;;;25.27;35.29;100389.41;5145172;27;20369;-70
2021/09/03 09:26:40;;;;;;;5.32;2.70;;;;;;;25.04;35.28;100378.66;5144295;27;19912;-72
2021/09/03 09:29:12;;;;;;;6.97;3.20;;;;;;;24.79;34.91;100381.63;5143078;27;20055;-72
2021/09/03 09:31:38;;;;;;;6.13;3.35;;;;;;;24.47;34.76;100370.41;5144384;27;20043;-73
2021/09/03 09:34:16;;;;;;;6.15;3.17;;;;;;;24.46;36.38;100385.81;5144188;27;20058;-72
2021/09/03 09:36:41;;;;;;;7.15;3.70;;;;;;;24.51;35.45;100372.41;5143938;27;20365;-72
2021/09/03 09:39:07;;;;;;;8.82;3.28;;;;;;;24.86;35.22;100367.94;5125555;27;20027;-71
2021/09/03 09:41:33;;;;;;;7.60;3.53;;;;;;;24.63;35.87;100368.84;5137653;27;20034;-72
2021/09/03 09:43:58;;;;;;;7.53;4.13;;;;;;;24.42;35.47;100373.00;5144391;27;20105;-72
2021/09/03 09:46:29;;;;;;;7.57;3.63;;;;;;;24.01;35.92;100368.53;5143868;27;20218;-72
2021/09/03 09:49:00;;;;;;;6.78;3.95;;;;;;;24.12;37.20;100357.69;5144194;27;20035;-72
2021/09/03 09:51:30;;;;;;;8.13;4.20;;;;;;;24.27;36.13;100346.44;5146521;27;20031;-72
2021/09/03 09:54:12;;;;;;;6.50;3.63;;;;;;;24.29;37.46;100354.31;5124958;27;20229;-71
2021/09/03 09:56:41;;;;;;;4.78;3.30;;;;;;;23.97;35.18;100343.81;5143848;27;20038;-72
2021/09/03 09:59:09;;;;;;;7.43;3.75;;;;;;;24.31;35.64;100339.47;5143568;27;20027;-72
2021/09/03 10:01:37;;;;;;;8.68;3.50;;;;;;;24.57;35.94;100331.91;5143742;27;20084;-72
2021/09/03 10:04:09;;;;;;;6.30;3.58;;;;;;;24.28;35.63;100339.13;5143724;27;20035;-72
2021/09/03 10:06:36;;;;;;;4.38;3.03;;;;;;;24.29;35.81;100325.38;5142605;27;20031;-72
2021/09/03 10:09:04;;;;;;;7.35;4.38;;;;;;;24.31;35.89;100330.53;5143681;27;20046;-72
2021/09/03 10:11:30;;;;;;;7.75;4.10;;;;;;;24.44;37.50;100317.56;5143684;27;20102;-72
2021/09/03 10:13:56;;;;;;;7.35;3.45;;;;;;;24.35;35.05;100327.13;5143827;27;20053;-72
2021/09/03 10:16:22;;;;;;;8.68;3.95;;;;;;;24.29;35.63;100319.13;5124994;27;20071;-73
2021/09/03 10:18:53;;;;;;;7.55;2.88;;;;;;;24.31;35.36;100317.00;5143686;27;20039;-68
2021/09/03 10:21:22;;;;;;;7.22;3.50;;;;;;;24.50;34.98;100311.19;5143342;27;20220;-68
2021/09/03 10:23:48;;;;;;;7.95;3.60;;;;;;;24.48;36.22;100315.19;5143552;27;20311;-68
2021/09/03 10:26:16;;;;;;;4.90;3.42;;;;;;;24.33;37.01;100318.41;5143220;27;20096;-68
2021/09/03 10:28:42;;;;;;;7.82;3.92;;;;;;;24.41;35.09;100306.38;5135821;27;20039;-68
2021/09/03 10:31:08;;;;;;;5.85;3.72;;;;;;;24.46;35.79;100306.50;5130767;27;20425;-68
2021/09/03 10:33:35;;;;;;;6.68;3.85;;;;;;;24.45;34.81;100302.97;5131482;27;20046;-68
2021/09/03 10:36:00;;;;;;;6.15;3.75;;;;;;;24.63;34.82;100312.81;5132904;27;20233;-69
2021/09/03 10:38:32;;;;;;;7.43;3.85;;;;;;;24.63;35.14;100309.28;5131167;27;20042;-68
2021/09/03 10:40:59;;;;;;;4.90;3.25;;;;;;;24.62;34.39;100300.31;5133457;27;20089;-68
2021/09/03 10:43:45;;;;;;;13.55;3.80;;;;;;;24.51;36.00;100301.19;5135322;27;20107;-69
2021/09/03 10:46:15;;;;;;;6.82;3.47;;;;;;;24.44;36.36;100301.31;5132813;27;20039;-68
2021/09/03 10:48:48;;;;;;;6.38;3.90;;;;;;;24.42;34.64;100302.63;5130065;27;20369;-68
2021/09/03 10:51:33;;;;;;;7.65;3.10;;;;;;;24.54;35.23;100308.81;5132937;27;20095;-68
2021/09/03 10:53:58;;;;;;;7.13;3.55;;;;;;;24.61;34.75;100304.09;5130819;27;20413;-68
2021/09/03 10:56:26;;;;;;;6.57;3.60;;;;;;;24.65;34.73;100297.13;5136264;27;20027;-68
2021/09/03 10:58:57;;;;;;;6.43;3.13;;;;;;;24.51;34.71;100293.88;5135169;27;20036;-68
2021/09/03 11:05:28;;;;;;;6.50;3.42;;;;;;;24.48;33.83;100282.72;5132972;27;20038;-68
2021/09/03 11:07:53;;;;;;;4.30;3.00;;;;;;;24.52;33.31;100283.88;5133279;27;20211;-69
2021/09/03 11:10:21;;;;;;;6.95;3.33;;;;;;;24.56;35.70;100282.34;5132809;27;20038;-69
2021/09/03 11:12:57;;;;;;;6.05;3.22;;;;;;;24.76;34.01;100282.72;5134930;27;20308;-69
2021/09/03 11:15:29;;;;;;;5.65;3.08;;;;;;;24.74;34.35;100284.84;5131465;27;20072;-68
2021/09/03 11:17:55;;;;;;;7.65;3.50;;;;;;;24.70;35.23;100285.59;5133626;27;20310;-68
2021/09/03 11:20:22;;;;;;;7.60;2.97;;;;;;;24.72;34.51;100270.75;5130511;27;20074;-68
2021/09/03 11:22:47;;;;;;;7.00;2.80;;;;;;;24.90;34.26;100274.31;5133687;27;20075;-69
2021/09/03 11:25:12;;;;;;;5.75;3.10;;;;;;;24.93;32.89;100262.97;5134612;27;20068;-69
2021/09/03 11:27:41;;;;;;;8.43;3.30;;;;;;;25.05;33.15;100261.09;5133717;27;20271;-69